ADDS METAR Data INFO
IDs: Format: Raw Decoded Include TAF

Data at: 1511 UTC 21 Feb 2018

KBRO 201453Z 15019KT 10SM FEW027 25/22 A2993 RMK AO2 SLP133 T02500222 52010